sensor_id;sensor_type;location;lat;lon;timestamp;pressure;altitude;pressure_sealevel;temperature;humidity
5777;BME280;2914;42.668;23.346;2023-02-15T00:01:58;95679.13;;;3.19;92.12
5777;BME280;2914;42.668;23.346;2023-02-15T00:07:05;95681.47;;;3.26;92.41
5777;BME280;2914;42.668;23.346;2023-02-15T00:09:34;95692.97;;;3.11;92.70
5777;BME280;2914;42.668;23.346;2023-02-15T00:12:03;95686.30;;;3.14;92.70
5777;BME280;2914;42.668;23.346;2023-02-15T00:14:32;95691.73;;;3.10;93.04
5777;BME280;2914;42.668;23.346;2023-02-15T00:17:02;95686.80;;;3.22;92.49
5777;BME280;2914;42.668;23.346;2023-02-15T00:19:31;95698.83;;;3.16;92.65
5777;BME280;2914;42.668;23.346;2023-02-15T00:22:00;95700.70;;;3.23;92.37
5777;BME280;2914;42.668;23.346;2023-02-15T00:24:30;95707.73;;;3.21;92.57
5777;BME280;2914;42.668;23.346;2023-02-15T00:26:59;95700.78;;;3.21;92.25
5777;BME280;2914;42.668;23.346;2023-02-15T00:32:10;95697.37;;;3.30;92.31
5777;BME280;2914;42.668;23.346;2023-02-15T00:34:39;95705.78;;;3.16;92.73
5777;BME280;2914;42.668;23.346;2023-02-15T00:37:08;95705.23;;;3.28;92.14
5777;BME280;2914;42.668;23.346;2023-02-15T00:39:37;95706.45;;;3.40;91.58
5777;BME280;2914;42.668;23.346;2023-02-15T00:42:06;95700.70;;;3.23;91.52
5777;BME280;2914;42.668;23.346;2023-02-15T00:44:35;95704.69;;;3.21;91.98
5777;BME280;2914;42.668;23.346;2023-02-15T00:47:05;95706.34;;;3.33;91.80
5777;BME280;2914;42.668;23.346;2023-02-15T00:49:34;95708.59;;;3.40;91.37
5777;BME280;2914;42.668;23.346;2023-02-15T00:52:03;95707.36;;;3.39;90.85
5777;BME280;2914;42.668;23.346;2023-02-15T00:54:32;95703.77;;;3.42;90.88
5777;BME280;2914;42.668;23.346;2023-02-15T00:57:02;95706.62;;;3.46;90.92
5777;BME280;2914;42.668;23.346;2023-02-15T00:59:31;95706.77;;;3.43;90.95
5777;BME280;2914;42.668;23.346;2023-02-15T01:02:00;95698.95;;;3.43;91.03
5777;BME280;2914;42.668;23.346;2023-02-15T01:04:30;95701.20;;;3.31;91.46
5777;BME280;2914;42.668;23.346;2023-02-15T01:06:59;95701.14;;;3.22;91.56
5777;BME280;2914;42.668;23.346;2023-02-15T01:09:29;95694.05;;;3.26;91.95
5777;BME280;2914;42.668;23.346;2023-02-15T01:11:58;95691.77;;;3.18;92.13
5777;BME280;2914;42.668;23.346;2023-02-15T01:14:27;95692.98;;;3.30;91.79
5777;BME280;2914;42.668;23.346;2023-02-15T01:16:56;95696.47;;;3.20;92.23
5777;BME280;2914;42.668;23.346;2023-02-15T01:19:25;95694.80;;;3.28;91.87
5777;BME280;2914;42.668;23.346;2023-02-15T01:21:54;95689.40;;;3.33;91.45
5777;BME280;2914;42.668;23.346;2023-02-15T01:24:23;95689.97;;;3.39;91.16
5777;BME280;2914;42.668;23.346;2023-02-15T01:26:52;95681.57;;;3.33;91.49
5777;BME280;2914;42.668;23.346;2023-02-15T01:29:22;95689.47;;;3.31;91.34
5777;BME280;2914;42.668;23.346;2023-02-15T01:31:51;95685.33;;;3.17;92.31
5777;BME280;2914;42.668;23.346;2023-02-15T01:34:20;95685.50;;;3.22;92.35
5777;BME280;2914;42.668;23.346;2023-02-15T01:36:49;95684.01;;;3.27;92.06
5777;BME280;2914;42.668;23.346;2023-02-15T01:39:18;95680.83;;;3.20;92.32
5777;BME280;2914;42.668;23.346;2023-02-15T01:41:47;95675.05;;;3.03;93.29
5777;BME280;2914;42.668;23.346;2023-02-15T01:47:36;95674.72;;;3.11;93.54
5777;BME280;2914;42.668;23.346;2023-02-15T01:50:11;95672.83;;;3.15;93.05
5777;BME280;2914;42.668;23.346;2023-02-15T01:52:43;95671.85;;;3.17;93.08
5777;BME280;2914;42.668;23.346;2023-02-15T01:55:13;95668.12;;;3.13;93.28
5777;BME280;2914;42.668;23.346;2023-02-15T01:57:43;95663.23;;;3.15;93.43
5777;BME280;2914;42.668;23.346;2023-02-15T02:00:19;95667.05;;;3.08;93.59
5777;BME280;2914;42.668;23.346;2023-02-15T02:02:51;95662.66;;;3.19;93.34
5777;BME280;2914;42.668;23.346;2023-02-15T02:05:21;95663.66;;;3.25;93.07
5777;BME280;2914;42.668;23.346;2023-02-15T02:07:52;95666.41;;;3.22;92.97
5777;BME280;2914;42.668;23.346;2023-02-15T02:10:23;95664.94;;;3.16;93.19
5777;BME280;2914;42.668;23.346;2023-02-15T02:12:54;95666.67;;;3.16;93.37
5777;BME280;2914;42.668;23.346;2023-02-15T02:18:10;95659.48;;;3.31;92.62
5777;BME280;2914;42.668;23.346;2023-02-15T02:24:32;95672.53;;;3.21;93.17
5777;BME280;2914;42.668;23.346;2023-02-15T02:27:28;95683.45;;;3.10;93.77
5777;BME280;2914;42.668;23.346;2023-02-15T02:30:44;95676.31;;;3.05;94.45
5777;BME280;2914;42.668;23.346;2023-02-15T02:33:30;95677.72;;;3.12;94.14
5777;BME280;2914;42.668;23.346;2023-02-15T02:36:06;95677.50;;;3.17;93.79
5777;BME280;2914;42.668;23.346;2023-02-15T02:38:44;95682.81;;;3.24;93.62
5777;BME280;2914;42.668;23.346;2023-02-15T02:41:17;95685.87;;;3.15;94.16
5777;BME280;2914;42.668;23.346;2023-02-15T02:43:52;95680.66;;;3.15;94.10
5777;BME280;2914;42.668;23.346;2023-02-15T02:46:26;95674.13;;;3.15;94.25
5777;BME280;2914;42.668;23.346;2023-02-15T02:48:55;95682.14;;;3.10;95.03
5777;BME280;2914;42.668;23.346;2023-02-15T02:51:25;95674.70;;;3.21;94.46
5777;BME280;2914;42.668;23.346;2023-02-15T02:53:56;95675.05;;;3.33;93.94
5777;BME280;2914;42.668;23.346;2023-02-15T02:56:29;95681.40;;;3.27;93.68
5777;BME280;2914;42.668;23.346;2023-02-15T02:59:01;95679.41;;;3.32;93.63
5777;BME280;2914;42.668;23.346;2023-02-15T03:01:33;95683.31;;;3.32;93.32
5777;BME280;2914;42.668;23.346;2023-02-15T03:04:05;95682.08;;;3.50;92.95
5777;BME280;2914;42.668;23.346;2023-02-15T03:11:51;95697.34;;;3.49;92.41
5777;BME280;2914;42.668;23.346;2023-02-15T03:17:04;95702.87;;;3.51;92.76
5777;BME280;2914;42.668;23.346;2023-02-15T03:22:14;95694.47;;;3.55;92.44
5777;BME280;2914;42.668;23.346;2023-02-15T03:24:48;95696.73;;;3.44;92.82
5777;BME280;2914;42.668;23.346;2023-02-15T03:27:20;95703.25;;;3.44;92.92
5777;BME280;2914;42.668;23.346;2023-02-15T03:29:53;95707.91;;;3.37;93.44
5777;BME280;2914;42.668;23.346;2023-02-15T03:32:22;95698.16;;;3.40;93.63
5777;BME280;2914;42.668;23.346;2023-02-15T03:34:52;95704.90;;;3.36;93.81
5777;BME280;2914;42.668;23.346;2023-02-15T03:37:25;95702.78;;;3.44;93.77
5777;BME280;2914;42.668;23.346;2023-02-15T03:39:56;95702.87;;;3.51;93.46
5777;BME280;2914;42.668;23.346;2023-02-15T03:42:30;95701.87;;;3.45;94.64
5777;BME280;2914;42.668;23.346;2023-02-15T03:45:02;95700.02;;;3.47;95.44
5777;BME280;2914;42.668;23.346;2023-02-15T03:47:34;95694.20;;;3.42;94.82
5777;BME280;2914;42.668;23.346;2023-02-15T03:50:07;95697.80;;;3.39;94.44
5777;BME280;2914;42.668;23.346;2023-02-15T03:52:41;95695.98;;;3.31;94.79
5777;BME280;2914;42.668;23.346;2023-02-15T03:55:10;95695.67;;;3.29;94.86
5777;BME280;2914;42.668;23.346;2023-02-15T03:57:40;95694.94;;;3.35;94.66
5777;BME280;2914;42.668;23.346;2023-02-15T04:00:27;95701.53;;;3.34;94.57
5777;BME280;2914;42.668;23.346;2023-02-15T04:03:26;95697.62;;;3.34;94.37
5777;BME280;2914;42.668;23.346;2023-02-15T04:05:55;95701.20;;;3.31;94.68
5777;BME280;2914;42.668;23.346;2023-02-15T04:08:24;95697.56;;;3.25;94.93
5777;BME280;2914;42.668;23.346;2023-02-15T04:10:55;95695.75;;;3.17;95.29
5777;BME280;2914;42.668;23.346;2023-02-15T04:16:08;95716.23;;;3.35;95.32
5777;BME280;2914;42.668;23.346;2023-02-15T04:18:39;95717.44;;;3.28;95.33
5777;BME280;2914;42.668;23.346;2023-02-15T04:24:13;95713.38;;;3.31;95.65
5777;BME280;2914;42.668;23.346;2023-02-15T04:29:44;95727.05;;;3.46;94.89
5777;BME280;2914;42.668;23.346;2023-02-15T04:32:14;95735.24;;;3.47;94.60
5777;BME280;2914;42.668;23.346;2023-02-15T04:34:43;95743.69;;;3.44;94.53
5777;BME280;2914;42.668;23.346;2023-02-15T04:37:12;95735.89;;;3.52;94.74
5777;BME280;2914;42.668;23.346;2023-02-15T04:39:41;95743.96;;;3.56;94.95
5777;BME280;2914;42.668;23.346;2023-02-15T04:42:10;95742.55;;;3.49;94.94
5777;BME280;2914;42.668;23.346;2023-02-15T04:44:40;95751.22;;;3.50;95.20
5777;BME280;2914;42.668;23.346;2023-02-15T04:47:09;95745.56;;;3.50;95.06
5777;BME280;2914;42.668;23.346;2023-02-15T04:49:38;95742.23;;;3.47;95.33
5777;BME280;2914;42.668;23.346;2023-02-15T04:52:07;95736.88;;;3.50;95.63
5777;BME280;2914;42.668;23.346;2023-02-15T04:54:37;95734.17;;;3.62;95.15
5777;BME280;2914;42.668;23.346;2023-02-15T04:59:44;95745.44;;;3.62;94.94
5777;BME280;2914;42.668;23.346;2023-02-15T05:05:08;95752.03;;;3.80;94.77
5777;BME280;2914;42.668;23.346;2023-02-15T05:07:39;95759.64;;;3.65;94.29
5777;BME280;2914;42.668;23.346;2023-02-15T05:10:09;95754.08;;;3.73;94.10
5777;BME280;2914;42.668;23.346;2023-02-15T05:12:39;95758.09;;;3.61;94.05
5777;BME280;2914;42.668;23.346;2023-02-15T05:15:09;95761.09;;;3.62;94.44
5777;BME280;2914;42.668;23.346;2023-02-15T05:17:38;95758.31;;;3.56;94.38
5777;BME280;2914;42.668;23.346;2023-02-15T05:20:09;95767.22;;;3.61;94.35
5777;BME280;2914;42.668;23.346;2023-02-15T05:22:38;95765.63;;;3.59;94.52
5777;BME280;2914;42.668;23.346;2023-02-15T05:25:09;95763.45;;;3.58;94.49
5777;BME280;2914;42.668;23.346;2023-02-15T05:30:34;95780.34;;;3.60;94.47
5777;BME280;2914;42.668;23.346;2023-02-15T05:33:03;95782.34;;;3.54;94.95
5777;BME280;2914;42.668;23.346;2023-02-15T05:38:16;95785.56;;;3.60;94.68
5777;BME280;2914;42.668;23.346;2023-02-15T05:40:45;95789.61;;;3.67;94.57
5777;BME280;2914;42.668;23.346;2023-02-15T05:43:14;95787.69;;;3.70;94.11
5777;BME280;2914;42.668;23.346;2023-02-15T05:45:46;95787.25;;;3.71;93.88
5777;BME280;2914;42.668;23.346;2023-02-15T05:51:00;95777.09;;;3.93;100.00
5777;BME280;2914;42.668;23.346;2023-02-15T05:53:32;95785.72;;;3.76;97.77
5777;BME280;2914;42.668;23.346;2023-02-15T05:56:01;95786.06;;;3.87;98.43
5777;BME280;2914;42.668;23.346;2023-02-15T06:01:11;95782.73;;;4.02;94.71
5777;BME280;2914;42.668;23.346;2023-02-15T06:03:42;95783.77;;;3.89;93.39
5777;BME280;2914;42.668;23.346;2023-02-15T06:06:11;95789.31;;;3.73;93.11
5777;BME280;2914;42.668;23.346;2023-02-15T06:08:41;95792.31;;;3.74;97.76
5777;BME280;2914;42.668;23.346;2023-02-15T06:11:10;95789.66;;;3.84;100.00
5777;BME280;2914;42.668;23.346;2023-02-15T06:16:17;95784.17;;;3.90;93.99
5777;BME280;2914;42.668;23.346;2023-02-15T06:18:46;95787.86;;;3.76;93.46
5777;BME280;2914;42.668;23.346;2023-02-15T06:21:15;95795.17;;;3.78;93.29
5777;BME280;2914;42.668;23.346;2023-02-15T06:23:44;95796.92;;;3.78;93.34
5777;BME280;2914;42.668;23.346;2023-02-15T06:28:50;95797.48;;;3.84;93.65
5777;BME280;2914;42.668;23.346;2023-02-15T06:31:19;95795.52;;;3.89;96.25
5777;BME280;2914;42.668;23.346;2023-02-15T06:33:49;95797.56;;;3.83;93.19
5777;BME280;2914;42.668;23.346;2023-02-15T06:36:18;95796.92;;;3.78;92.96
5777;BME280;2914;42.668;23.346;2023-02-15T06:38:47;95795.98;;;3.70;93.31
5777;BME280;2914;42.668;23.346;2023-02-15T06:41:16;95794.63;;;3.80;93.29
5777;BME280;2914;42.668;23.346;2023-02-15T06:43:45;95798.70;;;3.77;93.16
5777;BME280;2914;42.668;23.346;2023-02-15T06:48:51;95797.31;;;3.98;98.07
5777;BME280;2914;42.668;23.346;2023-02-15T06:51:21;95797.94;;;3.75;93.71
5777;BME280;2914;42.668;23.346;2023-02-15T06:53:50;95805.72;;;3.85;93.16
5777;BME280;2914;42.668;23.346;2023-02-15T06:56:19;95796.98;;;3.86;92.78
5777;BME280;2914;42.668;23.346;2023-02-15T06:58:48;95797.31;;;3.98;92.21
5777;BME280;2914;42.668;23.346;2023-02-15T07:01:17;95799.98;;;3.87;92.00
5777;BME280;2914;42.668;23.346;2023-02-15T07:03:46;95797.24;;;3.99;91.83
5777;BME280;2914;42.668;23.346;2023-02-15T07:08:59;95794.53;;;4.20;90.85
5777;BME280;2914;42.668;23.346;2023-02-15T07:11:28;95788.63;;;4.16;90.27
5777;BME280;2914;42.668;23.346;2023-02-15T07:16:53;95797.95;;;4.39;89.43
5777;BME280;2914;42.668;23.346;2023-02-15T07:19:22;95799.65;;;4.32;88.47
5777;BME280;2914;42.668;23.346;2023-02-15T07:21:51;95806.18;;;4.32;88.05
5777;BME280;2914;42.668;23.346;2023-02-15T07:24:20;95803.17;;;4.31;88.08
5777;BME280;2914;42.668;23.346;2023-02-15T07:26:49;95816.00;;;4.35;87.61
5777;BME280;2914;42.668;23.346;2023-02-15T07:29:18;95816.23;;;4.31;87.73
5777;BME280;2914;42.668;23.346;2023-02-15T07:31:47;95807.88;;;4.33;87.96
5777;BME280;2914;42.668;23.346;2023-02-15T07:34:16;95804.44;;;4.41;87.76
5777;BME280;2914;42.668;23.346;2023-02-15T07:36:45;95804.48;;;4.39;87.16
5777;BME280;2914;42.668;23.346;2023-02-15T07:39:14;95801.59;;;4.54;86.41
5777;BME280;2914;42.668;23.346;2023-02-15T07:41:43;95796.99;;;4.68;86.34
5777;BME280;2914;42.668;23.346;2023-02-15T07:44:13;95795.71;;;4.77;84.88
5777;BME280;2914;42.668;23.346;2023-02-15T07:46:43;95796.16;;;4.76;84.34
5777;BME280;2914;42.668;23.346;2023-02-15T07:49:12;95795.02;;;4.91;84.51
5777;BME280;2914;42.668;23.346;2023-02-15T07:51:42;95789.93;;;5.14;83.69
5777;BME280;2914;42.668;23.346;2023-02-15T07:54:11;95794.77;;;5.13;82.44
5777;BME280;2914;42.668;23.346;2023-02-15T07:56:40;95792.16;;;5.13;82.12
5777;BME280;2914;42.668;23.346;2023-02-15T07:59:10;95792.08;;;4.97;82.24
5777;BME280;2914;42.668;23.346;2023-02-15T08:01:39;95793.78;;;4.98;82.38
5777;BME280;2914;42.668;23.346;2023-02-15T08:04:09;95787.92;;;5.10;83.89
5777;BME280;2914;42.668;23.346;2023-02-15T08:06:39;95788.63;;;5.14;84.50
5777;BME280;2914;42.668;23.346;2023-02-15T08:09:09;95792.71;;;5.11;82.72
5777;BME280;2914;42.668;23.346;2023-02-15T08:11:39;95794.17;;;4.99;82.51
5777;BME280;2914;42.668;23.346;2023-02-15T08:14:10;95798.08;;;5.08;83.24
5777;BME280;2914;42.668;23.346;2023-02-15T08:16:41;95799.84;;;5.16;83.97
5777;BME280;2914;42.668;23.346;2023-02-15T08:19:12;95795.28;;;5.29;82.95
5777;BME280;2914;42.668;23.346;2023-02-15T08:21:43;95806.05;;;5.31;82.72
5777;BME280;2914;42.668;23.346;2023-02-15T08:24:14;95798.53;;;5.16;83.20
5777;BME280;2914;42.668;23.346;2023-02-15T08:26:44;95796.17;;;5.03;82.79
5777;BME280;2914;42.668;23.346;2023-02-15T08:29:16;95801.92;;;4.83;83.01
5777;BME280;2914;42.668;23.346;2023-02-15T08:31:46;95804.31;;;4.79;83.62
5777;BME280;2914;42.668;23.346;2023-02-15T08:34:17;95808.86;;;4.75;84.40
5777;BME280;2914;42.668;23.346;2023-02-15T08:36:47;95800.62;;;4.83;84.83
5777;BME280;2914;42.668;23.346;2023-02-15T08:39:16;95799.70;;;4.84;85.16
5777;BME280;2914;42.668;23.346;2023-02-15T08:41:47;95804.56;;;4.92;84.88
5777;BME280;2914;42.668;23.346;2023-02-15T08:44:17;95800.48;;;4.95;83.92
5777;BME280;2914;42.668;23.346;2023-02-15T08:46:48;95804.16;;;5.00;82.48
5777;BME280;2914;42.668;23.346;2023-02-15T08:49:19;95808.17;;;5.07;82.66
5777;BME280;2914;42.668;23.346;2023-02-15T08:51:49;95809.09;;;4.88;81.51
5777;BME280;2914;42.668;23.346;2023-02-15T08:54:20;95807.38;;;4.87;81.72
5777;BME280;2914;42.668;23.346;2023-02-15T08:56:50;95809.09;;;4.88;81.25
5777;BME280;2914;42.668;23.346;2023-02-15T08:59:21;95812.39;;;5.01;81.66
5777;BME280;2914;42.668;23.346;2023-02-15T09:01:51;95805.23;;;4.96;80.74
5777;BME280;2914;42.668;23.346;2023-02-15T09:04:21;95805.02;;;5.00;80.29
5777;BME280;2914;42.668;23.346;2023-02-15T09:06:51;95811.92;;;5.01;80.38
5777;BME280;2914;42.668;23.346;2023-02-15T09:09:21;95811.09;;;5.01;79.96
5777;BME280;2914;42.668;23.346;2023-02-15T09:11:51;95814.33;;;5.06;79.67
5777;BME280;2914;42.668;23.346;2023-02-15T09:14:21;95809.08;;;5.15;79.51
5777;BME280;2914;42.668;23.346;2023-02-15T09:16:53;95814.00;;;5.12;78.46
5777;BME280;2914;42.668;23.346;2023-02-15T09:19:23;95808.84;;;5.10;77.88
5777;BME280;2914;42.668;23.346;2023-02-15T09:21:52;95810.31;;;5.25;78.45
5777;BME280;2914;42.668;23.346;2023-02-15T09:24:21;95807.70;;;5.25;77.78
5777;BME280;2914;42.668;23.346;2023-02-15T09:26:50;95808.69;;;5.22;77.80
5777;BME280;2914;42.668;23.346;2023-02-15T09:29:20;95806.06;;;5.40;78.19
5777;BME280;2914;42.668;23.346;2023-02-15T09:31:51;95805.47;;;5.59;78.64
5777;BME280;2914;42.668;23.346;2023-02-15T09:37:07;95809.63;;;5.80;76.21
5777;BME280;2914;42.668;23.346;2023-02-15T09:39:37;95818.42;;;5.54;75.44
5777;BME280;2914;42.668;23.346;2023-02-15T09:45:23;95802.20;;;5.63;75.54
5777;BME280;2914;42.668;23.346;2023-02-15T09:48:13;95812.80;;;5.53;74.33
5777;BME280;2914;42.668;23.346;2023-02-15T09:50:47;95813.96;;;5.38;74.88
5777;BME280;2914;42.668;23.346;2023-02-15T09:53:27;95811.52;;;5.44;74.98
5777;BME280;2914;42.668;23.346;2023-02-15T09:56:00;95804.19;;;5.42;75.86
5777;BME280;2914;42.668;23.346;2023-02-15T09:58:33;95805.50;;;5.42;75.41
5777;BME280;2914;42.668;23.346;2023-02-15T10:01:05;95803.33;;;5.50;75.24
5777;BME280;2914;42.668;23.346;2023-02-15T10:04:04;95795.09;;;5.49;75.51
5777;BME280;2914;42.668;23.346;2023-02-15T10:06:38;95785.92;;;5.49;75.46
5777;BME280;2914;42.668;23.346;2023-02-15T10:09:18;95793.55;;;5.54;75.60
5777;BME280;2914;42.668;23.346;2023-02-15T10:12:03;95801.48;;;5.52;74.89
5777;BME280;2914;42.668;23.346;2023-02-15T10:14:51;95797.17;;;5.51;75.61
5777;BME280;2914;42.668;23.346;2023-02-15T10:20:20;95786.09;;;5.95;76.86
5777;BME280;2914;42.668;23.346;2023-02-15T10:22:57;95786.91;;;5.96;75.32
5777;BME280;2914;42.668;23.346;2023-02-15T10:25:33;95787.36;;;5.88;73.07
5777;BME280;2914;42.668;23.346;2023-02-15T10:28:06;95783.42;;;5.88;73.07
5777;BME280;2914;42.668;23.346;2023-02-15T10:30:40;95785.25;;;5.95;73.22
5777;BME280;2914;42.668;23.346;2023-02-15T10:33:13;95777.64;;;5.99;72.96
5777;BME280;2914;42.668;23.346;2023-02-15T10:35:45;95770.50;;;6.10;73.41
5777;BME280;2914;42.668;23.346;2023-02-15T10:38:20;95765.67;;;6.02;73.72
5777;BME280;2914;42.668;23.346;2023-02-15T10:40:57;95773.23;;;6.00;74.18
5777;BME280;2914;42.668;23.346;2023-02-15T10:46:28;95767.07;;;6.01;74.69
5777;BME280;2914;42.668;23.346;2023-02-15T10:49:25;95768.56;;;5.98;74.84
5777;BME280;2914;42.668;23.346;2023-02-15T10:52:01;95761.27;;;6.03;74.10
5777;BME280;2914;42.668;23.346;2023-02-15T10:54:34;95755.27;;;5.92;74.17
5777;BME280;2914;42.668;23.346;2023-02-15T10:57:09;95761.61;;;5.88;73.53
5777;BME280;2914;42.668;23.346;2023-02-15T10:59:53;95753.61;;;5.91;73.36
5777;BME280;2914;42.668;23.346;2023-02-15T11:02:29;95763.39;;;5.87;73.38
5777;BME280;2914;42.668;23.346;2023-02-15T11:05:02;95755.02;;;5.81;73.90
5777;BME280;2914;42.668;23.346;2023-02-15T11:07:37;95748.99;;;5.87;73.70
5777;BME280;2914;42.668;23.346;2023-02-15T11:10:14;95752.53;;;5.86;73.44
5777;BME280;2914;42.668;23.346;2023-02-15T11:12:43;95757.09;;;5.67;73.41
5777;BME280;2914;42.668;23.346;2023-02-15T11:15:16;95752.23;;;5.84;74.16
5777;BME280;2914;42.668;23.346;2023-02-15T11:17:48;95754.66;;;5.95;74.38
5777;BME280;2914;42.668;23.346;2023-02-15T11:20:21;95748.37;;;6.07;73.86
5777;BME280;2914;42.668;23.346;2023-02-15T11:22:51;95760.17;;;6.07;73.65
5777;BME280;2914;42.668;23.346;2023-02-15T11:25:24;95761.09;;;6.22;74.13
5777;BME280;2914;42.668;23.346;2023-02-15T11:27:55;95755.44;;;6.30;73.39
5777;BME280;2914;42.668;23.346;2023-02-15T11:30:29;95753.20;;;6.31;72.53
5777;BME280;2914;42.668;23.346;2023-02-15T11:33:00;95746.66;;;6.31;72.40
5777;BME280;2914;42.668;23.346;2023-02-15T11:35:33;95752.34;;;6.30;72.83
5777;BME280;2914;42.668;23.346;2023-02-15T11:38:07;95746.80;;;6.27;72.43
5777;BME280;2914;42.668;23.346;2023-02-15T11:40:40;95746.39;;;6.19;72.26
5777;BME280;2914;42.668;23.346;2023-02-15T11:43:14;95748.27;;;6.01;72.89
5777;BME280;2914;42.668;23.346;2023-02-15T11:45:45;95740.88;;;6.01;73.03
5777;BME280;2914;42.668;23.346;2023-02-15T11:48:16;95734.78;;;6.00;73.32
5777;BME280;2914;42.668;23.346;2023-02-15T11:50:46;95733.70;;;5.95;73.84
5777;BME280;2914;42.668;23.346;2023-02-15T11:53:17;95731.33;;;6.00;73.55
5777;BME280;2914;42.668;23.346;2023-02-15T11:55:50;95718.55;;;5.93;73.55
5777;BME280;2914;42.668;23.346;2023-02-15T11:58:27;95717.36;;;5.83;73.54
5777;BME280;2914;42.668;23.346;2023-02-15T12:01:00;95710.99;;;5.80;73.55
5777;BME280;2914;42.668;23.346;2023-02-15T12:03:37;95711.88;;;5.72;73.42
5777;BME280;2914;42.668;23.346;2023-02-15T12:06:11;95706.67;;;5.79;74.08
5777;BME280;2914;42.668;23.346;2023-02-15T12:08:38;95705.84;;;5.78;73.77
5777;BME280;2914;42.668;23.346;2023-02-15T12:11:11;95698.20;;;5.83;73.45
5777;BME280;2914;42.668;23.346;2023-02-15T12:13:55;95697.24;;;5.84;72.94
5777;BME280;2914;42.668;23.346;2023-02-15T12:16:25;95697.90;;;5.80;73.63
5777;BME280;2914;42.668;23.346;2023-02-15T12:18:56;95698.13;;;5.75;73.82
5777;BME280;2914;42.668;23.346;2023-02-15T12:21:29;95698.14;;;5.91;75.54
5777;BME280;2914;42.668;23.346;2023-02-15T12:24:01;95699.36;;;6.02;73.36
5777;BME280;2914;42.668;23.346;2023-02-15T12:31:59;95686.83;;;6.07;72.03
5777;BME280;2914;42.668;23.346;2023-02-15T12:37:14;95688.59;;;5.99;72.47
5777;BME280;2914;42.668;23.346;2023-02-15T12:42:40;95670.16;;;6.01;73.29
5777;BME280;2914;42.668;23.346;2023-02-15T12:47:48;95664.67;;;6.13;73.10
5777;BME280;2914;42.668;23.346;2023-02-15T12:50:24;95662.62;;;6.10;72.41
5777;BME280;2914;42.668;23.346;2023-02-15T12:55:49;95649.00;;;6.20;72.40
5777;BME280;2914;42.668;23.346;2023-02-15T12:58:20;95648.19;;;6.03;72.86
5777;BME280;2914;42.668;23.346;2023-02-15T13:01:03;95648.22;;;6.48;98.65
5777;BME280;2914;42.668;23.346;2023-02-15T13:03:32;95650.34;;;6.34;74.12
5777;BME280;2914;42.668;23.346;2023-02-15T13:06:03;95655.87;;;6.37;72.12
5777;BME280;2914;42.668;23.346;2023-02-15T13:08:37;95652.56;;;6.26;71.87
5777;BME280;2914;42.668;23.346;2023-02-15T13:11:09;95657.75;;;6.35;72.01
5777;BME280;2914;42.668;23.346;2023-02-15T13:16:32;95652.72;;;6.46;72.64
5777;BME280;2914;42.668;23.346;2023-02-15T13:19:06;95649.80;;;6.36;71.62
5777;BME280;2914;42.668;23.346;2023-02-15T13:21:38;95640.14;;;6.37;71.56
5777;BME280;2914;42.668;23.346;2023-02-15T13:24:17;95644.19;;;6.42;71.49
5777;BME280;2914;42.668;23.346;2023-02-15T13:26:47;95641.56;;;6.42;71.34
5777;BME280;2914;42.668;23.346;2023-02-15T13:29:20;95644.91;;;6.37;71.71
5777;BME280;2914;42.668;23.346;2023-02-15T13:31:50;95648.39;;;6.38;71.67
5777;BME280;2914;42.668;23.346;2023-02-15T13:34:24;95643.05;;;6.32;72.09
5777;BME280;2914;42.668;23.346;2023-02-15T13:36:57;95649.13;;;6.40;72.10
5777;BME280;2914;42.668;23.346;2023-02-15T13:39:29;95649.13;;;6.40;72.10
5777;BME280;2914;42.668;23.346;2023-02-15T13:42:02;95644.84;;;6.39;71.83
5777;BME280;2914;42.668;23.346;2023-02-15T13:44:53;95646.36;;;6.43;73.29
5777;BME280;2914;42.668;23.346;2023-02-15T13:47:26;95646.36;;;6.43;73.29
5777;BME280;2914;42.668;23.346;2023-02-15T13:50:05;95650.92;;;6.39;72.21
5777;BME280;2914;42.668;23.346;2023-02-15T13:52:38;95656.45;;;6.42;71.87
5777;BME280;2914;42.668;23.346;2023-02-15T13:55:29;95651.11;;;6.36;73.32
5777;BME280;2914;42.668;23.346;2023-02-15T13:58:15;95644.72;;;6.78;88.44
5777;BME280;2914;42.668;23.346;2023-02-15T14:00:49;95658.41;;;6.76;73.99
5777;BME280;2914;42.668;23.346;2023-02-15T14:06:36;95660.55;;;6.76;71.91
5777;BME280;2914;42.668;23.346;2023-02-15T14:09:13;95671.95;;;6.68;72.19
5777;BME280;2914;42.668;23.346;2023-02-15T14:11:48;95671.95;;;6.68;72.19
5777;BME280;2914;42.668;23.346;2023-02-15T14:17:27;95672.39;;;6.53;72.82
5777;BME280;2914;42.668;23.346;2023-02-15T14:19:58;95681.84;;;6.49;72.91
5777;BME280;2914;42.668;23.346;2023-02-15T14:22:31;95684.08;;;6.48;73.20
5777;BME280;2914;42.668;23.346;2023-02-15T14:25:05;95675.61;;;6.28;73.37
5777;BME280;2914;42.668;23.346;2023-02-15T14:27:43;95683.66;;;6.32;73.37
5777;BME280;2914;42.668;23.346;2023-02-15T14:30:18;95686.53;;;6.27;73.66
5777;BME280;2914;42.668;23.346;2023-02-15T14:32:51;95683.06;;;6.20;74.10
5777;BME280;2914;42.668;23.346;2023-02-15T14:35:23;95682.86;;;6.16;74.61
5777;BME280;2914;42.668;23.346;2023-02-15T14:37:57;95683.69;;;6.16;74.46
5777;BME280;2914;42.668;23.346;2023-02-15T14:40:32;95685.63;;;6.13;74.74
5777;BME280;2914;42.668;23.346;2023-02-15T14:43:26;95683.67;;;6.09;75.18
5777;BME280;2914;42.668;23.346;2023-02-15T14:45:57;95677.95;;;6.09;75.10
5777;BME280;2914;42.668;23.346;2023-02-15T14:48:30;95689.73;;;6.09;74.80
5777;BME280;2914;42.668;23.346;2023-02-15T14:51:00;95681.58;;;6.07;75.20
5777;BME280;2914;42.668;23.346;2023-02-15T14:53:46;95688.41;;;6.02;75.11
5777;BME280;2914;42.668;23.346;2023-02-15T14:56:23;95680.07;;;6.03;75.26
5777;BME280;2914;42.668;23.346;2023-02-15T15:04:57;95681.92;;;5.85;76.46
5777;BME280;2914;42.668;23.346;2023-02-15T15:10:33;95680.40;;;5.97;76.04
5777;BME280;2914;42.668;23.346;2023-02-15T15:12:46;95688.38;;;5.86;76.18
5777;BME280;2914;42.668;23.346;2023-02-15T15:15:32;95683.67;;;5.77;76.30
5777;BME280;2914;42.668;23.346;2023-02-15T15:18:00;95682.58;;;5.81;75.96
5777;BME280;2914;42.668;23.346;2023-02-15T15:20:45;95683.83;;;5.90;75.60
5777;BME280;2914;42.668;23.346;2023-02-15T15:23:40;95676.80;;;5.90;75.06
5777;BME280;2914;42.668;23.346;2023-02-15T15:26:25;95684.92;;;5.86;75.12
5777;BME280;2914;42.668;23.346;2023-02-15T15:28:56;95690.55;;;5.87;75.24
5777;BME280;2914;42.668;23.346;2023-02-15T15:31:30;95691.95;;;5.85;75.27
5777;BME280;2914;42.668;23.346;2023-02-15T15:34:19;95696.41;;;5.83;75.39
5777;BME280;2914;42.668;23.346;2023-02-15T15:46:16;95703.30;;;5.61;76.56
5777;BME280;2914;42.668;23.346;2023-02-15T15:48:46;95709.45;;;5.60;76.43
5777;BME280;2914;42.668;23.346;2023-02-15T15:54:03;95705.16;;;5.34;78.04